Shelby — WCV6157 — position and weather

sailwx.info

Track history (hours):
 
Tides and Currents Weather Stations Pressure Air Temp Water Temp Dewpoint Dewpoint Depression Visibility Wind Speed Wind Dir Waves Ship Positions

Shelby

More information available from US FCC via Universal Licensing System and Coast Guard Vessel Documentation Center.

Last reported at 2014-Aug-21 23:33 UTC. Time now 2014-Aug-22 00:03 UTC.
Position N 40°41' W 074°08'.

Length 22 m; draft 3.1 m.

Type: Tug. MMSI: 366939080.

Date/timePositionNaut miles runAvg speedWind from/ knotsBaromVisibWave heightAir tempDewpointWater temp
2014-Aug-21 23:33N 40°41' W 074°08'4 0.5
2014-Aug-21 16:16N 40°44' W 074°05'0 0.0
2014-Aug-21 14:07N 40°44' W 074°05'0 0.0
2014-Aug-21 13:25N 40°44' W 074°05'0 0.0
2014-Aug-21 12:22N 40°44' W 074°05'0 0.0
2014-Aug-21 11:28N 40°44' W 074°05'0 0.0
2014-Aug-21 10:28N 40°44' W 074°05'0 0.0
2014-Aug-21 09:31N 40°44' W 074°05'0 0.0
2014-Aug-21 08:31N 40°44' W 074°05'0 0.0
2014-Aug-21 07:31N 40°44' W 074°05'0 0.0
2014-Aug-21 06:25N 40°44' W 074°05'0 0.0
2014-Aug-21 05:31N 40°44' W 074°05'0 0.0
2014-Aug-21 04:16N 40°44' W 074°05'0 0.0
2014-Aug-21 03:28N 40°44' W 074°05'0 0.0
2014-Aug-21 02:31N 40°44' W 074°05'0 0.0
2014-Aug-21 01:31N 40°44' W 074°05'0 0.0
2014-Aug-21 00:31N 40°44' W 074°05'0 0.0
2014-Aug-20 23:19N 40°44' W 074°05'0 0.0
2014-Aug-20 18:07N 40°44' W 074°05'0 0.0
2014-Aug-20 16:16N 40°44' W 074°05'0 0.0
2014-Aug-20 12:32N 40°45' W 074°05'1 0.8
2014-Aug-20 11:33N 40°44' W 074°06'6 6.0
2014-Aug-20 10:33N 40°39' W 074°09'4 3.8
2014-Aug-20 09:31N 40°41' W 074°04'0 0.0
2014-Aug-20 08:31N 40°41' W 074°04'0 0.0
2014-Aug-20 07:31N 40°41' W 074°04'0 0.0
2014-Aug-20 06:33N 40°41' W 074°04'0 0.0
2014-Aug-20 05:31N 40°41' W 074°04'0 0.0
2014-Aug-20 04:34N 40°41' W 074°04'0 0.0
2014-Aug-20 03:31N 40°41' W 074°04'0 0.0
2014-Aug-20 02:31N 40°41' W 074°04'0 0.0
2014-Aug-20 01:33N 40°41' W 074°04'0 0.0
2014-Aug-20 00:34N 40°41' W 074°04'0 0.0
2014-Aug-19 23:33N 40°41' W 074°04'0 0.2
2014-Aug-19 22:33N 40°41' W 074°05'0 0.0
2014-Aug-19 21:33N 40°41' W 074°05'0 0.0
2014-Aug-19 20:33N 40°41' W 074°05'0 0.2
2014-Aug-19 19:32N 40°41' W 074°04'0 0.0
2014-Aug-19 18:32N 40°41' W 074°04'0 0.1
2014-Aug-19 17:32N 40°41' W 074°05'3 2.8
2014-Aug-19 16:33N 40°43' W 074°02'1 0.7
2014-Aug-19 15:31N 40°43' W 074°03'0 0.3
2014-Aug-19 14:31N 40°43' W 074°03'1 0.7
2014-Aug-19 13:33N 40°42' W 074°02'5 4.9
2014-Aug-19 12:28N 40°39' W 074°07'3 3.6
2014-Aug-19 11:31N 40°38' W 074°12'1 1.1
2014-Aug-19 10:34N 40°39' W 074°10'5 5.3
2014-Aug-19 09:33N 40°40' W 074°04'1 0.6
2014-Aug-19 08:29N 40°40' W 074°04'0 0.0
2014-Aug-19 07:32N 40°40' W 074°04'0 0.0
2014-Aug-19 06:32N 40°40' W 074°04'0 0.0
2014-Aug-19 05:32N 40°40' W 074°04'0 0.0
2014-Aug-19 04:32N 40°40' W 074°04'0 0.0
2014-Aug-19 03:32N 40°40' W 074°04'1 1.0
2014-Aug-19 02:34N 40°39' W 074°04'6 6.0
2014-Aug-19 01:30N 40°37' W 074°12'5 5.6
2014-Aug-19 00:31N 40°32' W 074°15'6 1.0
2014-Aug-18 18:20N 40°38' W 074°12'6 7.9
2014-Aug-18 17:33N 40°40' W 074°04'1 1.5
2014-Aug-18 16:34N 40°41' W 074°02'1 1.0
2014-Aug-18 15:33N 40°41' W 074°01'0 0.3
2014-Aug-18 14:33N 40°41' W 074°01'0 0.0
2014-Aug-18 13:30N 40°41' W 074°01'0 0.1
2014-Aug-18 12:30N 40°41' W 074°01'0 0.2
2014-Aug-18 11:33N 40°41' W 074°01'0 0.1
2014-Aug-18 10:33N 40°41' W 074°01'1 1.2
2014-Aug-18 09:33N 40°41' W 074°02'2 1.5
2014-Aug-18 08:22N 40°41' W 074°05'0 0.0
2014-Aug-18 07:28N 40°41' W 074°05'0 0.0
2014-Aug-18 06:31N 40°41' W 074°05'0 0.0
2014-Aug-18 05:28N 40°41' W 074°05'0 0.0
2014-Aug-18 04:33N 40°40' W 074°05'1 1.3
2014-Aug-18 03:34N 40°39' W 074°04'6 5.7
2014-Aug-18 02:33N 40°34' W 074°02'6 5.9
2014-Aug-18 01:29N 40°29' W 073°58'7 6.9
2014-Aug-18 00:30N 40°22' W 073°56'45 7.5
2014-Aug-17 18:34N 39°38' W 074°08'53 7.2
2014-Aug-17 11:13N 38°55' W 074°47'5 7.2
2014-Aug-17 10:33N 38°51' W 074°49'7 7.1
2014-Aug-17 09:34N 38°48' W 074°58'7 7.0
2014-Aug-17 08:34N 38°53' W 075°04'7 7.2
2014-Aug-17 07:33N 38°60' W 075°08'60 2.1
2014-Aug-16 02:33N 39°38' W 074°08'1010.3
2014-Aug-16 01:33N 39°47' W 074°03'1110.4
2014-Aug-16 00:30N 39°58' W 074°01'1010.3
2014-Aug-15 23:33N 40°08' W 073°59'1510.0
2014-Aug-15 22:06N 40°22' W 073°56'15 9.7
2014-Aug-15 20:33N 40°36' W 074°03'4 4.5
2014-Aug-15 19:33N 40°41' W 074°04'0 0.1
2014-Aug-15 18:33N 40°40' W 074°04'0 0.1
2014-Aug-15 17:33N 40°41' W 074°05'0 0.0
2014-Aug-15 16:33N 40°41' W 074°05'0 0.3
2014-Aug-15 15:34N 40°40' W 074°04'0 0.1
2014-Aug-15 14:32N 40°41' W 074°04'0 0.2
2014-Aug-15 13:32N 40°41' W 074°04'0 0.1
2014-Aug-15 12:32N 40°41' W 074°05'0 0.0
2014-Aug-15 11:32N 40°41' W 074°05'0 0.0
2014-Aug-15 10:33N 40°41' W 074°05'0 0.0
2014-Aug-15 09:31N 40°41' W 074°05'0 0.0
2014-Aug-15 08:31N 40°41' W 074°05'0 0.0
2014-Aug-15 07:32N 40°41' W 074°05'0 0.0
2014-Aug-15 06:32N 40°41' W 074°05'0 0.0
2014-Aug-15 05:31N 40°41' W 074°05'0 0.0
2014-Aug-15 04:31N 40°41' W 074°05'0 0.0
2014-Aug-15 03:32N 40°41' W 074°05'0 0.0
2014-Aug-15 02:31N 40°41' W 074°05'0 0.0
2014-Aug-15 01:31N 40°41' W 074°05'0 0.0
2014-Aug-15 00:31N 40°41' W 074°05'0 0.3
2014-Aug-14 23:34N 40°40' W 074°04'2 0.5
2014-Aug-14 20:33N 40°39' W 074°05'2 1.7
2014-Aug-14 19:31N 40°41' W 074°04'0 0.0
2014-Aug-14 18:32N 40°41' W 074°04'0 0.2
2014-Aug-14 17:33N 40°41' W 074°05'0 0.1
2014-Aug-14 16:31N 40°41' W 074°05'0 0.1
2014-Aug-14 15:33N 40°41' W 074°05'0 0.1
2014-Aug-14 14:26N 40°41' W 074°05'0 0.0
2014-Aug-14 13:32N 40°41' W 074°05'0 0.0
2014-Aug-14 12:32N 40°41' W 074°05'0 0.0
2014-Aug-14 11:26N 40°41' W 074°05'0 0.0
2014-Aug-14 10:32N 40°41' W 074°05'0 0.0
2014-Aug-14 09:32N 40°41' W 074°05'0 0.0
2014-Aug-14 08:32N 40°41' W 074°05'0 0.0
2014-Aug-14 07:32N 40°41' W 074°05'0 0.0
2014-Aug-14 06:32N 40°41' W 074°05'0 0.0
2014-Aug-14 05:32N 40°41' W 074°05'0 0.0
2014-Aug-14 04:32N 40°41' W 074°05'0 0.0
2014-Aug-14 03:32N 40°41' W 074°05'0 0.0
2014-Aug-14 02:32N 40°41' W 074°05'0 0.0
2014-Aug-14 01:32N 40°41' W 074°05'0 0.0
2014-Aug-14 00:32N 40°41' W 074°05'0 0.0
2014-Aug-13 23:32N 40°41' W 074°05'0 0.0
2014-Aug-13 22:32N 40°41' W 074°05'0 0.0
2014-Aug-13 21:29N 40°41' W 074°05'0 0.0
2014-Aug-13 20:23N 40°41' W 074°05'0 0.0
2014-Aug-13 19:32N 40°41' W 074°05'1 1.3
2014-Aug-13 18:33N 40°39' W 074°04'2 2.0
2014-Aug-13 17:32N 40°39' W 074°07'3 2.8
2014-Aug-13 16:33N 40°40' W 074°04'0 0.2
2014-Aug-13 15:33N 40°41' W 074°05'0 0.0
2014-Aug-13 14:33N 40°41' W 074°05'0 0.0
2014-Aug-13 13:33N 40°41' W 074°05'5 4.6
2014-Aug-13 12:33N 40°44' W 074°01'1 0.6
2014-Aug-13 11:33N 40°44' W 074°01'4 3.9
2014-Aug-13 10:31N 40°41' W 074°05'0 0.0
2014-Aug-13 07:22N 40°41' W 074°05'0 0.0
2014-Aug-13 03:22N 40°41' W 074°05'0 0.1
2014-Aug-13 02:33N 40°41' W 074°05'0 0.0
2014-Aug-13 01:33N 40°41' W 074°05'0 0.0
2014-Aug-13 00:30N 40°41' W 074°05'0 0.0
2014-Aug-12 23:33N 40°41' W 074°05'0 0.0
2014-Aug-12 22:33N 40°41' W 074°05'0 0.0
2014-Aug-12 21:33N 40°41' W 074°05'0 0.3
2014-Aug-12 20:33N 40°40' W 074°04'0 0.2
2014-Aug-12 19:31N 40°41' W 074°05'0 0.2
2014-Aug-12 18:33N 40°41' W 074°04'0 0.2
2014-Aug-12 17:32N 40°41' W 074°05'0 0.0
2014-Aug-12 16:32N 40°41' W 074°05'0 0.0
2014-Aug-12 15:32N 40°41' W 074°05'0 0.0
2014-Aug-12 14:32N 40°41' W 074°05'0 0.0
2014-Aug-12 13:32N 40°41' W 074°05'0 0.0
2014-Aug-12 12:32N 40°41' W 074°05'0 0.0
2014-Aug-12 11:32N 40°41' W 074°05'0 0.0
2014-Aug-12 10:32N 40°41' W 074°05'0 0.0
2014-Aug-12 09:32N 40°41' W 074°05'0 0.0
2014-Aug-12 08:29N 40°41' W 074°05'0 0.0
2014-Aug-12 07:32N 40°41' W 074°05'0 0.0
2014-Aug-12 06:32N 40°41' W 074°05'0 0.0
2014-Aug-12 05:32N 40°41' W 074°05'0 0.0
2014-Aug-12 04:32N 40°41' W 074°05'0 0.0
2014-Aug-12 03:32N 40°41' W 074°05'0 0.0
2014-Aug-12 02:31N 40°41' W 074°05'0 0.0
2014-Aug-12 01:32N 40°41' W 074°05'0 0.0
2014-Aug-12 00:31N 40°41' W 074°05'  
Track history (hours):
 
Tides and Currents Weather Stations Pressure Air Temp Water Temp Dewpoint Dewpoint Depression Visibility Wind Speed Wind Dir Waves Ship Positions

Shelby

More information available from US FCC via Universal Licensing System and Coast Guard Vessel Documentation Center.

Last reported at 2014-Aug-21 23:33 UTC. Time now 2014-Aug-22 00:03 UTC.
Position N 40°41' W 074°08'.

Length 22 m; draft 3.1 m.

Type: Tug. MMSI: 366939080.

Date/timePositionNaut miles runAvg speedWind from/ knotsBaromVisibWave heightAir tempDewpointWater temp
2014-Aug-21 23:33N 40°41' W 074°08'4 0.5
2014-Aug-21 16:16N 40°44' W 074°05'0 0.0
2014-Aug-21 14:07N 40°44' W 074°05'0 0.0
2014-Aug-21 13:25N 40°44' W 074°05'0 0.0
2014-Aug-21 12:22N 40°44' W 074°05'0 0.0
2014-Aug-21 11:28N 40°44' W 074°05'0 0.0
2014-Aug-21 10:28N 40°44' W 074°05'0 0.0
2014-Aug-21 09:31N 40°44' W 074°05'0 0.0
2014-Aug-21 08:31N 40°44' W 074°05'0 0.0
2014-Aug-21 07:31N 40°44' W 074°05'0 0.0
2014-Aug-21 06:25N 40°44' W 074°05'0 0.0
2014-Aug-21 05:31N 40°44' W 074°05'0 0.0
2014-Aug-21 04:16N 40°44' W 074°05'0 0.0
2014-Aug-21 03:28N 40°44' W 074°05'0 0.0
2014-Aug-21 02:31N 40°44' W 074°05'0 0.0
2014-Aug-21 01:31N 40°44' W 074°05'0 0.0
2014-Aug-21 00:31N 40°44' W 074°05'0 0.0
2014-Aug-20 23:19N 40°44' W 074°05'0 0.0
2014-Aug-20 18:07N 40°44' W 074°05'0 0.0
2014-Aug-20 16:16N 40°44' W 074°05'0 0.0
2014-Aug-20 12:32N 40°45' W 074°05'1 0.8
2014-Aug-20 11:33N 40°44' W 074°06'6 6.0
2014-Aug-20 10:33N 40°39' W 074°09'4 3.8
2014-Aug-20 09:31N 40°41' W 074°04'0 0.0
2014-Aug-20 08:31N 40°41' W 074°04'0 0.0
2014-Aug-20 07:31N 40°41' W 074°04'0 0.0
2014-Aug-20 06:33N 40°41' W 074°04'0 0.0
2014-Aug-20 05:31N 40°41' W 074°04'0 0.0
2014-Aug-20 04:34N 40°41' W 074°04'0 0.0
2014-Aug-20 03:31N 40°41' W 074°04'0 0.0
2014-Aug-20 02:31N 40°41' W 074°04'0 0.0
2014-Aug-20 01:33N 40°41' W 074°04'0 0.0
2014-Aug-20 00:34N 40°41' W 074°04'0 0.0
2014-Aug-19 23:33N 40°41' W 074°04'0 0.2
2014-Aug-19 22:33N 40°41' W 074°05'0 0.0
2014-Aug-19 21:33N 40°41' W 074°05'0 0.0
2014-Aug-19 20:33N 40°41' W 074°05'0 0.2
2014-Aug-19 19:32N 40°41' W 074°04'0 0.0
2014-Aug-19 18:32N 40°41' W 074°04'0 0.1
2014-Aug-19 17:32N 40°41' W 074°05'3 2.8
2014-Aug-19 16:33N 40°43' W 074°02'1 0.7
2014-Aug-19 15:31N 40°43' W 074°03'0 0.3
2014-Aug-19 14:31N 40°43' W 074°03'1 0.7
2014-Aug-19 13:33N 40°42' W 074°02'5 4.9
2014-Aug-19 12:28N 40°39' W 074°07'3 3.6
2014-Aug-19 11:31N 40°38' W 074°12'1 1.1
2014-Aug-19 10:34N 40°39' W 074°10'5 5.3
2014-Aug-19 09:33N 40°40' W 074°04'1 0.6
2014-Aug-19 08:29N 40°40' W 074°04'0 0.0
2014-Aug-19 07:32N 40°40' W 074°04'0 0.0
2014-Aug-19 06:32N 40°40' W 074°04'0 0.0
2014-Aug-19 05:32N 40°40' W 074°04'0 0.0
2014-Aug-19 04:32N 40°40' W 074°04'0 0.0
2014-Aug-19 03:32N 40°40' W 074°04'1 1.0
2014-Aug-19 02:34N 40°39' W 074°04'6 6.0
2014-Aug-19 01:30N 40°37' W 074°12'5 5.6
2014-Aug-19 00:31N 40°32' W 074°15'6 1.0
2014-Aug-18 18:20N 40°38' W 074°12'6 7.9
2014-Aug-18 17:33N 40°40' W 074°04'1 1.5
2014-Aug-18 16:34N 40°41' W 074°02'1 1.0
2014-Aug-18 15:33N 40°41' W 074°01'0 0.3
2014-Aug-18 14:33N 40°41' W 074°01'0 0.0
2014-Aug-18 13:30N 40°41' W 074°01'0 0.1
2014-Aug-18 12:30N 40°41' W 074°01'0 0.2
2014-Aug-18 11:33N 40°41' W 074°01'0 0.1
2014-Aug-18 10:33N 40°41' W 074°01'1 1.2
2014-Aug-18 09:33N 40°41' W 074°02'2 1.5
2014-Aug-18 08:22N 40°41' W 074°05'0 0.0
2014-Aug-18 07:28N 40°41' W 074°05'0 0.0
2014-Aug-18 06:31N 40°41' W 074°05'0 0.0
2014-Aug-18 05:28N 40°41' W 074°05'0 0.0
2014-Aug-18 04:33N 40°40' W 074°05'1 1.3
2014-Aug-18 03:34N 40°39' W 074°04'6 5.7
2014-Aug-18 02:33N 40°34' W 074°02'6 5.9
2014-Aug-18 01:29N 40°29' W 073°58'7 6.9
2014-Aug-18 00:30N 40°22' W 073°56'45 7.5
2014-Aug-17 18:34N 39°38' W 074°08'53 7.2
2014-Aug-17 11:13N 38°55' W 074°47'5 7.2
2014-Aug-17 10:33N 38°51' W 074°49'7 7.1
2014-Aug-17 09:34N 38°48' W 074°58'7 7.0
2014-Aug-17 08:34N 38°53' W 075°04'7 7.2
2014-Aug-17 07:33N 38°60' W 075°08'60 2.1
2014-Aug-16 02:33N 39°38' W 074°08'1010.3
2014-Aug-16 01:33N 39°47' W 074°03'1110.4
2014-Aug-16 00:30N 39°58' W 074°01'1010.3
2014-Aug-15 23:33N 40°08' W 073°59'1510.0
2014-Aug-15 22:06N 40°22' W 073°56'15 9.7
2014-Aug-15 20:33N 40°36' W 074°03'4 4.5
2014-Aug-15 19:33N 40°41' W 074°04'0 0.1
2014-Aug-15 18:33N 40°40' W 074°04'0 0.1
2014-Aug-15 17:33N 40°41' W 074°05'0 0.0
2014-Aug-15 16:33N 40°41' W 074°05'0 0.3
2014-Aug-15 15:34N 40°40' W 074°04'0 0.1
2014-Aug-15 14:32N 40°41' W 074°04'0 0.2
2014-Aug-15 13:32N 40°41' W 074°04'0 0.1
2014-Aug-15 12:32N 40°41' W 074°05'0 0.0
2014-Aug-15 11:32N 40°41' W 074°05'0 0.0
2014-Aug-15 10:33N 40°41' W 074°05'0 0.0
2014-Aug-15 09:31N 40°41' W 074°05'0 0.0
2014-Aug-15 08:31N 40°41' W 074°05'0 0.0
2014-Aug-15 07:32N 40°41' W 074°05'0 0.0
2014-Aug-15 06:32N 40°41' W 074°05'0 0.0
2014-Aug-15 05:31N 40°41' W 074°05'0 0.0
2014-Aug-15 04:31N 40°41' W 074°05'0 0.0
2014-Aug-15 03:32N 40°41' W 074°05'0 0.0
2014-Aug-15 02:31N 40°41' W 074°05'0 0.0
2014-Aug-15 01:31N 40°41' W 074°05'0 0.0
2014-Aug-15 00:31N 40°41' W 074°05'0 0.3
2014-Aug-14 23:34N 40°40' W 074°04'2 0.5
2014-Aug-14 20:33N 40°39' W 074°05'2 1.7
2014-Aug-14 19:31N 40°41' W 074°04'0 0.0
2014-Aug-14 18:32N 40°41' W 074°04'0 0.2
2014-Aug-14 17:33N 40°41' W 074°05'0 0.1
2014-Aug-14 16:31N 40°41' W 074°05'0 0.1
2014-Aug-14 15:33N 40°41' W 074°05'0 0.1
2014-Aug-14 14:26N 40°41' W 074°05'0 0.0
2014-Aug-14 13:32N 40°41' W 074°05'0 0.0
2014-Aug-14 12:32N 40°41' W 074°05'0 0.0
2014-Aug-14 11:26N 40°41' W 074°05'0 0.0
2014-Aug-14 10:32N 40°41' W 074°05'0 0.0
2014-Aug-14 09:32N 40°41' W 074°05'0 0.0
2014-Aug-14 08:32N 40°41' W 074°05'0 0.0
2014-Aug-14 07:32N 40°41' W 074°05'0 0.0
2014-Aug-14 06:32N 40°41' W 074°05'0 0.0
2014-Aug-14 05:32N 40°41' W 074°05'0 0.0
2014-Aug-14 04:32N 40°41' W 074°05'0 0.0
2014-Aug-14 03:32N 40°41' W 074°05'0 0.0
2014-Aug-14 02:32N 40°41' W 074°05'0 0.0
2014-Aug-14 01:32N 40°41' W 074°05'0 0.0
2014-Aug-14 00:32N 40°41' W 074°05'0 0.0
2014-Aug-13 23:32N 40°41' W 074°05'0 0.0
2014-Aug-13 22:32N 40°41' W 074°05'0 0.0
2014-Aug-13 21:29N 40°41' W 074°05'0 0.0
2014-Aug-13 20:23N 40°41' W 074°05'0 0.0
2014-Aug-13 19:32N 40°41' W 074°05'1 1.3
2014-Aug-13 18:33N 40°39' W 074°04'2 2.0
2014-Aug-13 17:32N 40°39' W 074°07'3 2.8
2014-Aug-13 16:33N 40°40' W 074°04'0 0.2
2014-Aug-13 15:33N 40°41' W 074°05'0 0.0
2014-Aug-13 14:33N 40°41' W 074°05'0 0.0
2014-Aug-13 13:33N 40°41' W 074°05'5 4.6
2014-Aug-13 12:33N 40°44' W 074°01'1 0.6
2014-Aug-13 11:33N 40°44' W 074°01'4 3.9
2014-Aug-13 10:31N 40°41' W 074°05'0 0.0
2014-Aug-13 07:22N 40°41' W 074°05'0 0.0
2014-Aug-13 03:22N 40°41' W 074°05'0 0.1
2014-Aug-13 02:33N 40°41' W 074°05'0 0.0
2014-Aug-13 01:33N 40°41' W 074°05'0 0.0
2014-Aug-13 00:30N 40°41' W 074°05'0 0.0
2014-Aug-12 23:33N 40°41' W 074°05'0 0.0
2014-Aug-12 22:33N 40°41' W 074°05'0 0.0
2014-Aug-12 21:33N 40°41' W 074°05'0 0.3
2014-Aug-12 20:33N 40°40' W 074°04'0 0.2
2014-Aug-12 19:31N 40°41' W 074°05'0 0.2
2014-Aug-12 18:33N 40°41' W 074°04'0 0.2
2014-Aug-12 17:32N 40°41' W 074°05'0 0.0
2014-Aug-12 16:32N 40°41' W 074°05'0 0.0
2014-Aug-12 15:32N 40°41' W 074°05'0 0.0
2014-Aug-12 14:32N 40°41' W 074°05'0 0.0
2014-Aug-12 13:32N 40°41' W 074°05'0 0.0
2014-Aug-12 12:32N 40°41' W 074°05'0 0.0
2014-Aug-12 11:32N 40°41' W 074°05'0 0.0
2014-Aug-12 10:32N 40°41' W 074°05'0 0.0
2014-Aug-12 09:32N 40°41' W 074°05'0 0.0
2014-Aug-12 08:29N 40°41' W 074°05'0 0.0
2014-Aug-12 07:32N 40°41' W 074°05'0 0.0
2014-Aug-12 06:32N 40°41' W 074°05'0 0.0
2014-Aug-12 05:32N 40°41' W 074°05'0 0.0
2014-Aug-12 04:32N 40°41' W 074°05'0 0.0
2014-Aug-12 03:32N 40°41' W 074°05'0 0.0
2014-Aug-12 02:31N 40°41' W 074°05'0 0.0
2014-Aug-12 01:32N 40°41' W 074°05'0 0.0
2014-Aug-12 00:31N 40°41' W 074°05'  

Dump ship's entire track history